Charlottetown, Canada
Current Conditions -  °F | °C
As of 2:00 PM on Wednesday 26 Nov 2014 (Local Time) from CYYG Reporting Station
Overcast Overcast  
Wind Chill:   Ceiling: 13000
Heat Index:   Visibility: 15mi
Dew Point: -3°   Wind: 9mph
Humidity: 57%   Direction: 300°WNW
Pressure: 30.16"   Gusts: NA
Location:  46.24°N, 63.13°W
Report Text: CYYG 261800Z 30008KT 15SM BKN130 OVC210 05/M03 A3016 RMK AC5CC3 SLP214
Loading
Personal Weather Stations






























Interactive Weather Map New forecast layout! Learn more

10-Day Weather Forecast

Advertisements
Track Severe Weather on mobile